Time;durP1;ratioP1;P1;durP2;ratioP2;P2;SDS_P1;SDS_P2;PMS_P1;PMS_P2;Temp;Humidity;BMP_temperature;BMP_pressure;BME280_temperature;BME280_humidity;BME280_pressure;Samples;Min_cycle;Max_cycle;Signal;HPM_P1;HPM_P2
2021/06/28 00:00:23;;;;;;;2.55;0.60;;;23.00;99.20;;;22.46;63.61;100535.06;5028676;28;20128;-53
2021/06/28 00:02:49;;;;;;;2.47;0.50;;;22.90;99.30;;;22.42;63.22;100528.59;5028785;28;20084;-47
2021/06/28 00:05:18;;;;;;;1.95;0.38;;;22.90;99.40;;;22.38;63.21;100531.91;5028464;28;20089;-51
2021/06/28 00:07:45;;;;;;;1.63;0.60;;;22.90;99.50;;;22.30;63.70;100533.00;5029267;28;20048;-50
2021/06/28 00:10:16;;;;;;;0.80;0.40;;;22.80;99.60;;;22.24;64.12;100530.41;5043896;28;20089;-52
2021/06/28 00:12:42;;;;;;;2.80;0.45;;;22.70;99.90;;;22.15;64.28;100530.72;5028513;28;20393;-50
2021/06/28 00:15:13;;;;;;;3.53;0.40;;;22.70;99.90;;;22.08;64.63;100529.94;5028523;28;20634;-49
2021/06/28 00:17:41;;;;;;;0.80;0.43;;;22.60;99.90;;;22.01;65.07;100531.84;5028440;28;20048;-53
2021/06/28 00:20:09;;;;;;;2.13;0.50;;;22.50;99.90;;;22.01;64.65;100533.66;5028447;28;20098;-57
2021/06/28 00:22:36;;;;;;;1.35;0.50;;;22.50;99.90;;;22.01;64.88;100536.31;5028257;28;20093;-60
2021/06/28 00:25:08;;;;;;;2.90;0.63;;;22.50;99.90;;;22.12;64.53;100532.97;5028397;28;20030;-57
2021/06/28 00:27:39;;;;;;;1.08;0.47;;;22.60;99.90;;;22.12;64.02;100531.16;5043295;28;20048;-52
2021/06/28 00:30:10;;;;;;;2.50;0.40;;;22.60;99.90;;;22.05;64.72;100535.69;5028128;28;20039;-57
2021/06/28 00:32:37;;;;;;;3.20;0.68;;;22.60;99.90;;;21.94;65.25;100525.75;5035957;28;20037;-57
2021/06/28 00:35:04;;;;;;;0.95;0.40;;;22.50;99.90;;;21.79;66.00;100527.91;5047962;28;20041;-57
2021/06/28 00:37:30;;;;;;;1.70;0.50;;;22.40;99.90;;;21.75;65.73;100526.72;5030249;28;20039;-52
2021/06/28 00:39:56;;;;;;;5.97;0.70;;;22.30;99.90;;;21.69;66.18;100532.91;5028097;28;20187;-57
2021/06/28 00:42:24;;;;;;;1.30;0.43;;;22.20;99.90;;;21.56;66.95;100533.00;5027799;28;20033;-55
2021/06/28 00:44:53;;;;;;;1.30;0.50;;;22.10;99.90;;;21.46;67.54;100534.28;5026211;28;20041;-54
2021/06/28 00:47:21;;;;;;;1.33;0.55;;;22.00;99.90;;;21.43;67.25;100524.09;5027861;28;20098;-49
2021/06/28 00:49:47;;;;;;;4.03;0.77;;;22.00;99.90;;;21.40;67.44;100524.53;5026914;28;20081;-53
2021/06/28 00:52:14;;;;;;;2.35;0.50;;;21.90;99.90;;;21.38;67.43;100537.19;5027748;28;20041;-57
2021/06/28 00:54:42;;;;;;;4.20;0.68;;;21.90;99.90;;;21.37;67.46;100530.25;5027507;28;20038;-60
2021/06/28 00:57:08;;;;;;;2.17;0.63;;;21.80;99.90;;;21.34;67.72;100520.09;5027349;28;20463;-55
2021/06/28 00:59:35;;;;;;;2.10;0.60;;;21.80;99.90;;;21.30;67.80;100521.53;5027697;28;20030;-57
2021/06/28 01:02:03;;;;;;;4.00;0.60;;;21.80;99.90;;;21.31;67.41;100517.03;5026252;28;20033;-56
2021/06/28 01:04:31;;;;;;;1.10;0.70;;;21.80;99.90;;;21.30;67.38;100524.19;5042644;28;20177;-53
2021/06/28 01:06:57;;;;;;;3.53;0.70;;;21.80;99.90;;;21.33;67.50;100522.94;5027430;28;20469;-49
2021/06/28 01:09:24;;;;;;;4.32;0.40;;;21.80;99.90;;;21.33;67.15;100512.34;5042687;28;20112;-48
2021/06/28 01:11:50;;;;;;;2.10;0.60;;;21.80;99.90;;;21.35;67.34;100516.41;5042203;28;20103;-52
2021/06/28 01:14:17;;;;;;;1.10;0.50;;;21.80;99.90;;;21.32;67.38;100514.19;5027624;28;20040;-50
2021/06/28 01:16:44;;;;;;;2.00;0.50;;;21.80;99.90;;;21.29;67.17;100519.91;5042094;28;20129;-48
2021/06/28 01:19:15;;;;;;;2.15;0.50;;;21.80;99.90;;;21.27;67.53;100516.66;5027538;28;20063;-58
2021/06/28 01:21:44;;;;;;;3.35;0.55;;;21.70;99.90;;;21.23;67.51;100515.47;5025788;28;20556;-57
2021/06/28 01:24:11;;;;;;;1.30;0.50;;;21.70;99.90;;;21.18;67.46;100521.38;5042377;28;20201;-59
2021/06/28 01:26:38;;;;;;;4.38;0.75;;;21.70;99.90;;;21.15;67.79;100518.34;5027051;28;20045;-54
2021/06/28 01:29:04;;;;;;;3.72;0.70;;;21.70;99.90;;;21.12;68.24;100516.13;5042368;28;20274;-54
2021/06/28 01:31:30;;;;;;;1.25;0.50;;;21.60;99.90;;;21.09;68.60;100511.25;5027185;28;20057;-51
2021/06/28 01:33:56;;;;;;;2.22;0.60;;;21.60;99.90;;;21.02;68.66;100515.75;5026985;28;20045;-52
2021/06/28 01:36:22;;;;;;;3.45;0.52;;;21.60;99.90;;;21.00;68.78;100513.31;5027166;28;20076;-50
2021/06/28 01:38:51;;;;;;;1.40;0.60;;;21.50;99.90;;;20.97;68.99;100515.56;5027171;28;20037;-60
2021/06/28 01:41:17;;;;;;;2.38;0.50;;;21.50;99.90;;;20.97;69.05;100505.00;5026973;28;20368;-52
2021/06/28 01:43:43;;;;;;;3.60;0.40;;;21.40;99.90;;;20.96;68.81;100506.00;5026832;28;20037;-51
2021/06/28 01:46:09;;;;;;;3.90;0.60;;;21.40;99.90;;;20.96;68.48;100503.34;5032657;28;20036;-54
2021/06/28 01:48:37;;;;;;;3.65;0.40;;;21.40;99.90;;;20.99;68.10;100513.53;5042097;28;20033;-55
2021/06/28 01:51:04;;;;;;;1.35;0.40;;;21.40;99.90;;;21.03;67.90;100518.19;5060080;28;20036;-54
2021/06/28 01:53:31;;;;;;;3.30;0.50;;;21.50;99.90;;;21.03;67.51;100512.91;5029185;28;20068;-53
2021/06/28 01:56:04;;;;;;;1.98;0.50;;;21.50;99.90;;;21.02;67.76;100513.13;5042832;28;20215;-55
2021/06/28 01:58:31;;;;;;;2.00;0.50;;;21.50;99.90;;;21.02;67.91;100513.13;5038291;28;20441;-56
2021/06/28 02:00:58;;;;;;;2.10;0.63;;;21.50;99.90;;;21.06;67.69;100511.66;5042871;28;20488;-59
2021/06/28 02:03:26;;;;;;;1.48;0.60;;;21.50;99.90;;;21.03;68.08;100514.75;5039899;28;20049;-55
2021/06/28 02:05:58;;;;;;;3.30;0.70;;;21.50;99.90;;;20.96;68.64;100512.13;5030740;28;20071;-56
2021/06/28 02:08:35;;;;;;;1.73;0.57;;;21.40;99.90;;;20.91;68.84;100519.06;5035360;28;20366;-51
2021/06/28 02:11:06;;;;;;;1.50;0.50;;;21.40;99.90;;;20.95;68.26;100505.19;5030901;28;20491;-56
2021/06/28 02:13:36;;;;;;;2.30;0.50;;;21.40;99.90;;;20.94;68.49;100510.69;5030740;28;20485;-61
2021/06/28 02:16:03;;;;;;;3.95;0.68;;;21.40;99.90;;;20.95;68.38;100517.63;5037352;28;20046;-54
2021/06/28 02:18:29;;;;;;;2.55;0.43;;;21.40;99.90;;;20.86;68.50;100503.81;5039284;28;20109;-54
2021/06/28 02:20:58;;;;;;;3.40;0.50;;;21.40;99.90;;;20.80;69.04;100502.81;5035579;28;20140;-52
2021/06/28 02:23:36;;;;;;;4.95;0.82;;;21.30;99.90;;;20.82;68.99;100514.00;5044516;28;20068;-51
2021/06/28 02:26:11;;;;;;;4.63;0.98;;;21.30;99.90;;;20.92;68.30;100515.41;5030371;28;20041;-54
2021/06/28 02:28:40;;;;;;;;;;;21.30;99.90;;;20.93;68.09;100520.47;5031571;28;20037;-50
2021/06/28 02:31:09;;;;;;;2.17;0.60;;;21.40;99.90;;;20.94;67.60;100519.47;5033462;28;19948;-55
2021/06/28 02:33:39;;;;;;;1.95;0.50;;;21.40;99.90;;;20.98;67.45;100528.63;5037183;28;20036;-53
2021/06/28 02:36:07;;;;;;;2.65;0.50;;;21.40;99.90;;;20.86;68.22;100523.16;5050260;28;20036;-54
2021/06/28 02:38:35;;;;;;;3.00;0.50;;;21.40;99.90;;;20.78;68.27;100514.66;5045564;28;20561;-52
2021/06/28 02:41:03;;;;;;;1.88;0.40;;;21.30;99.90;;;20.69;69.07;100518.56;5050100;28;20033;-53
2021/06/28 02:43:29;;;;;;;2.17;0.50;;;21.20;99.90;;;20.68;69.00;100520.41;5041860;28;20022;-57
2021/06/28 02:45:56;;;;;;;3.88;0.43;;;21.20;99.90;;;20.71;68.46;100524.47;5032851;28;20033;-59
2021/06/28 02:48:22;;;;;;;2.25;0.50;;;21.20;99.90;;;20.72;68.32;100526.09;5038247;28;20037;-51
2021/06/28 02:50:49;;;;;;;2.65;0.57;;;21.20;99.90;;;20.70;68.07;100523.66;5048379;28;20040;-55
2021/06/28 02:53:17;;;;;;;3.05;0.68;;;21.20;99.90;;;20.68;68.38;100519.59;5045676;28;20032;-56
2021/06/28 02:55:45;;;;;;;1.77;0.45;;;21.20;99.90;;;20.67;68.86;100524.06;5064790;28;20110;-55
2021/06/28 02:58:11;;;;;;;2.45;0.60;;;21.10;99.90;;;20.67;68.62;100518.78;5039935;28;20441;-52
2021/06/28 03:00:37;;;;;;;5.65;0.50;;;21.20;99.90;;;20.66;68.88;100522.44;5029825;28;20137;-52
2021/06/28 03:03:04;;;;;;;1.75;0.70;;;21.10;99.90;;;20.67;68.48;100521.41;5046930;28;20085;-54
2021/06/28 03:05:30;;;;;;;1.65;0.57;;;21.20;99.90;;;20.62;68.72;100515.13;5048860;28;20037;-49
2021/06/28 03:07:56;;;;;;;1.05;0.50;;;21.10;99.90;;;20.61;69.03;100516.97;5043057;28;20109;-47
2021/06/28 03:10:22;;;;;;;2.60;0.50;;;21.10;99.90;;;20.59;68.87;100516.34;5049298;28;20060;-52
2021/06/28 03:15:24;;;;;;;;;;;21.10;99.90;;;20.65;68.41;100515.50;5108322;22;20057;-52
2021/06/28 03:17:50;;;;;;;;;;;21.10;99.90;;;20.64;68.91;100519.19;5016752;28;19927;-51
2021/06/28 03:20:17;;;;;;;;;;;21.10;99.90;;;20.46;69.39;100503.97;5044463;28;20427;-55
2021/06/28 03:22:45;;;;;;;3.75;0.40;;;21.00;99.90;;;20.38;69.31;100511.31;5023917;28;19921;-53
2021/06/28 03:25:15;;;;;;;2.83;0.50;;;20.90;99.90;;;20.34;69.89;100518.00;5029149;28;20041;-56
2021/06/28 03:27:43;;;;;;;2.05;0.70;;;20.80;99.90;;;20.30;70.06;100514.16;5018933;28;20126;-50
2021/06/28 03:30:13;;;;;;;5.22;0.70;;;20.80;99.90;;;20.26;70.08;100513.75;5009787;28;20033;-54
2021/06/28 03:32:40;;;;;;;4.32;0.82;;;20.80;99.90;;;20.20;70.61;100511.94;5024032;28;20065;-56
2021/06/28 03:35:07;;;;;;;1.65;0.80;;;20.70;99.90;;;20.20;70.28;100520.69;5029153;28;20083;-49
2021/06/28 03:37:33;;;;;;;1.23;0.50;;;20.70;99.90;;;20.24;70.13;100513.16;5022166;28;20033;-58
2021/06/28 03:39:59;;;;;;;1.42;0.45;;;20.70;99.90;;;20.24;70.22;100534.31;5019304;28;20103;-60
2021/06/28 03:42:25;;;;;;;2.80;0.50;;;20.80;99.90;;;20.24;70.08;100525.56;5009231;28;20037;-55
2021/06/28 03:44:51;;;;;;;4.07;0.52;;;20.70;99.90;;;20.18;70.29;100525.38;5013998;28;20578;-53
2021/06/28 03:47:17;;;;;;;1.42;0.40;;;20.70;99.90;;;20.20;70.45;100528.63;5024725;28;20051;-50
2021/06/28 03:49:43;;;;;;;3.45;0.57;;;20.70;99.90;;;20.19;70.56;100527.00;5025424;28;20087;-57
2021/06/28 03:52:09;;;;;;;3.92;0.85;;;20.70;99.90;;;20.20;70.59;100535.75;5028638;28;20071;-58
2021/06/28 03:54:35;;;;;;;3.35;0.70;;;20.70;99.90;;;20.18;70.76;100530.66;5025188;28;20045;-54
2021/06/28 03:57:01;;;;;;;1.77;0.93;;;20.70;99.90;;;20.23;70.44;100535.34;5026939;28;20040;-57
2021/06/28 03:59:27;;;;;;;4.63;0.88;;;20.70;99.90;;;20.24;70.32;100530.88;5025866;28;20037;-52
2021/06/28 04:01:53;;;;;;;1.77;0.60;;;20.70;99.90;;;20.25;70.45;100532.50;5011799;28;20520;-56
2021/06/28 04:04:20;;;;;;;6.35;0.80;;;20.80;99.90;;;20.26;70.25;100523.53;5043737;28;20067;-56
2021/06/28 04:06:46;;;;;;;1.00;0.45;;;20.80;99.90;;;20.35;69.83;100531.03;5043227;28;20037;-57
2021/06/28 04:09:12;;;;;;;1.70;0.65;;;20.80;99.90;;;20.92;67.88;100518.03;5027805;28;20091;-52
2021/06/28 04:11:38;;;;;;;3.35;0.50;;;21.30;99.90;;;21.63;65.49;100515.22;5027761;28;20088;-57
2021/06/28 04:14:04;;;;;;;0.88;0.30;;;22.20;99.90;;;22.38;63.34;100521.28;5027144;28;20076;-59
2021/06/28 04:16:30;;;;;;;2.10;0.43;;;23.10;99.90;;;23.39;60.21;100515.31;5015998;28;20045;-57
2021/06/28 04:18:56;;;;;;;1.98;0.52;;;24.20;98.50;;;24.00;57.93;100516.84;5026086;28;20021;-61
2021/06/28 04:21:23;;;;;;;2.30;0.43;;;25.30;95.70;;;24.45;56.33;100517.88;5027327;28;20045;-47
2021/06/28 04:23:48;;;;;;;2.45;0.40;;;25.90;93.30;;;24.59;55.97;100514.91;5039536;28;20048;-52
2021/06/28 04:26:14;;;;;;;2.75;0.40;;;26.10;92.10;;;25.32;54.28;100509.69;5042475;28;20045;-52
2021/06/28 04:28:40;;;;;;;2.67;0.40;;;26.80;90.60;;;25.09;53.91;100520.47;5014004;28;20069;-55
2021/06/28 04:31:06;;;;;;;1.13;0.35;;;26.90;87.50;;;25.40;53.18;100516.50;5012868;28;20504;-56
2021/06/28 04:33:32;;;;;;;1.08;0.30;;;27.10;85.80;;;25.66;51.97;100517.75;5035463;28;20417;-50
2021/06/28 04:35:59;;;;;;;1.50;0.35;;;27.80;80.90;;;26.08;51.57;100523.44;5008737;28;20113;-61
2021/06/28 04:38:25;;;;;;;1.20;0.40;;;27.90;80.90;;;26.34;50.75;100524.66;5012886;28;20335;-53
2021/06/28 04:40:52;;;;;;;1.75;0.30;;;28.30;78.60;;;26.47;50.18;100515.47;5027201;28;20481;-57
2021/06/28 04:43:18;;;;;;;1.15;0.47;;;28.60;75.40;;;26.73;49.37;100523.53;5026608;28;20098;-57
2021/06/28 04:45:44;;;;;;;4.20;0.40;;;28.80;74.20;;;27.22;48.27;100518.19;5026888;28;20068;-51
2021/06/28 04:48:11;;;;;;;3.45;0.40;;;29.20;72.90;;;26.89;48.59;100537.09;5023062;28;20064;-61
2021/06/28 04:50:37;;;;;;;0.93;0.30;;;29.30;70.50;;;26.55;49.28;100529.19;5026423;28;20549;-56
2021/06/28 04:53:03;;;;;;;4.03;0.43;;;28.80;71.80;;;27.02;48.52;100534.03;5022330;28;20046;-57
2021/06/28 04:55:29;;;;;;;1.95;0.40;;;29.30;70.00;;;26.96;48.68;100537.69;5027854;28;20144;-59
2021/06/28 04:57:55;;;;;;;1.25;0.63;;;29.30;69.20;;;27.30;47.67;100533.78;5024278;28;20462;-52
2021/06/28 05:00:24;;;;;;;7.82;0.80;;;29.50;68.60;;;27.82;46.46;100535.88;5027080;28;20037;-53
2021/06/28 05:02:50;;;;;;;8.63;1.08;;;30.20;66.90;;;27.83;46.03;100542.84;5022452;28;20033;-54
2021/06/28 05:05:17;;;;;;;3.60;0.50;;;30.50;65.00;;;28.01;45.71;100533.56;5027674;28;20454;-60
2021/06/28 05:07:44;;;;;;;7.70;0.45;;;30.60;63.90;;;28.05;45.60;100534.66;5022933;28;20191;-50
2021/06/28 05:10:12;;;;;;;1.63;0.30;;;30.60;63.90;;;29.18;43.29;100537.59;5026505;28;20139;-54
2021/06/28 05:12:38;;;;;;;1.35;0.52;;;31.60;61.70;;;28.88;43.88;100542.88;5022473;28;20037;-52
2021/06/28 05:15:07;;;;;;;3.17;0.38;;;31.60;61.10;;;28.81;43.78;100542.31;5025947;28;20050;-54
2021/06/28 05:17:33;;;;;;;3.20;0.40;;;31.60;60.40;;;29.18;43.08;100532.25;5011889;28;20037;-54
2021/06/28 05:19:59;;;;;;;2.50;0.50;;;31.90;59.40;;;29.15;43.14;100532.78;5027468;28;20033;-55
2021/06/28 05:22:25;;;;;;;1.83;0.40;;;32.10;58.60;;;29.35;42.93;100530.09;5025342;28;20149;-54
2021/06/28 05:24:51;;;;;;;7.63;0.70;;;32.30;58.20;;;29.26;42.43;100529.03;5024889;28;20091;-57
2021/06/28 05:27:16;;;;;;;9.43;1.17;;;32.20;57.50;;;29.54;41.95;100527.72;5023542;28;20245;-55
2021/06/28 05:29:42;;;;;;;5.65;0.50;;;32.70;56.50;;;29.21;42.54;100531.72;5027697;28;20068;-51
2021/06/28 05:32:09;;;;;;;5.22;0.40;;;32.40;56.40;;;28.87;43.20;100536.72;5023401;28;20041;-58
2021/06/28 05:34:35;;;;;;;4.03;0.30;;;32.10;57.10;;;29.43;42.14;100531.47;5026222;28;20076;-56
2021/06/28 05:37:01;;;;;;;4.60;0.95;;;32.40;56.70;;;29.84;41.11;100524.22;5015657;28;20365;-47
2021/06/28 05:39:27;;;;;;;9.00;0.55;;;32.80;55.60;;;30.57;39.90;100531.88;5021200;28;20196;-54
2021/06/28 05:41:53;;;;;;;3.45;0.40;;;33.20;55.50;;;30.40;39.97;100534.06;5024306;28;20034;-57
2021/06/28 05:44:19;;;;;;;2.05;0.60;;;33.70;53.90;;;30.67;39.73;100534.53;5024758;28;20045;-53
2021/06/28 05:46:45;;;;;;;11.95;0.70;;;33.60;54.10;;;30.85;39.10;100543.81;5023233;28;20037;-56
2021/06/28 05:49:11;;;;;;;5.35;0.57;;;34.10;52.90;;;31.04;38.73;100536.72;5022975;28;20763;-60
2021/06/28 05:51:37;;;;;;;6.45;0.60;;;34.10;53.10;;;30.59;39.88;100552.03;5023353;28;20128;-51
2021/06/28 05:54:03;;;;;;;8.40;0.88;;;34.10;52.30;;;30.25;40.09;100551.00;5021309;28;20128;-56
2021/06/28 05:56:29;;;;;;;6.50;0.52;;;33.60;53.00;;;30.30;40.12;100545.63;5009886;28;20484;-55
2021/06/28 05:58:55;;;;;;;4.38;0.40;;;33.60;52.80;;;30.50;39.79;100550.16;5007303;28;20351;-59
2021/06/28 06:01:21;;;;;;;4.78;0.45;;;33.70;53.10;;;29.89;40.76;100550.25;5012680;28;20041;-54
2021/06/28 06:03:47;;;;;;;13.48;0.40;;;33.30;53.10;;;30.17;40.32;100548.91;5021884;28;20041;-58
2021/06/28 06:06:13;;;;;;;5.57;0.40;;;33.30;53.50;;;29.88;41.36;100545.97;5025993;28;20026;-54
2021/06/28 06:08:39;;;;;;;7.53;0.40;;;33.10;53.70;;;30.38;40.38;100545.06;5022119;28;20041;-60
2021/06/28 06:11:08;;;;;;;6.90;0.70;;;33.50;53.40;;;31.51;38.25;100551.50;5026989;28;20116;-55
2021/06/28 06:13:34;;;;;;;8.00;0.40;;;34.40;52.20;;;31.98;37.39;100548.94;5021767;28;20049;-58
2021/06/28 06:16:00;;;;;;;5.65;0.95;;;35.40;50.70;;;31.75;38.15;100547.00;5026732;28;20057;-59
2021/06/28 06:18:26;;;;;;;3.70;0.40;;;35.50;50.10;;;31.65;37.69;100555.16;5021504;28;20028;-53
2021/06/28 06:20:53;;;;;;;5.97;0.40;;;35.20;50.30;;;32.29;36.74;100557.53;5022490;28;20091;-56
2021/06/28 06:23:19;;;;;;;2.88;0.40;;;35.70;49.40;;;31.37;38.07;100562.09;5044535;28;20061;-54
2021/06/28 06:25:46;;;;;;;1.75;0.35;;;35.20;50.10;;;31.71;37.09;100566.72;5042266;28;20037;-60
2021/06/28 06:28:13;;;;;;;4.97;0.50;;;35.60;48.90;;;32.69;36.01;100565.44;5026394;28;20056;-56
2021/06/28 06:30:42;;;;;;;1.50;0.30;;;36.20;48.90;;;32.95;35.13;100569.44;5061928;28;20106;-53
2021/06/28 06:33:08;;;;;;;3.80;0.60;;;36.50;48.00;;;32.34;36.36;100564.78;5035722;28;20077;-52
2021/06/28 06:35:34;;;;;;;2.45;0.28;;;36.10;48.50;;;31.83;36.94;100565.25;5026933;28;20109;-54
2021/06/28 06:38:01;;;;;;;5.13;0.40;;;35.60;48.70;;;31.85;36.99;100568.47;5026795;28;20038;-54
2021/06/28 06:40:29;;;;;;;3.25;0.20;;;35.50;48.80;;;31.72;37.29;100560.22;5026729;28;20076;-57
2021/06/28 06:42:57;;;;;;;3.75;0.93;;;35.60;48.30;;;31.20;38.41;100567.06;5041414;28;20037;-56
2021/06/28 06:45:24;;;;;;;5.20;0.40;;;35.00;49.50;;;31.76;37.39;100564.78;5026740;28;20052;-59
2021/06/28 06:47:51;;;;;;;4.53;0.65;;;35.50;48.90;;;32.13;36.59;100564.19;5027123;28;20045;-51
2021/06/28 06:50:18;;;;;;;1.92;0.30;;;35.80;48.40;;;32.12;36.56;100569.84;5030155;28;20033;-56
2021/06/28 06:52:46;;;;;;;3.67;0.40;;;35.60;48.40;;;32.39;36.27;100567.41;5030028;28;20033;-56
2021/06/28 06:55:15;;;;;;;1.00;0.28;;;35.80;48.50;;;32.35;36.65;100577.16;5045129;28;20272;-53
2021/06/28 06:57:41;;;;;;;1.50;0.30;;;35.90;48.40;;;32.52;35.90;100571.31;5029961;28;20105;-58
2021/06/28 07:00:15;;;;;;;4.65;0.30;;;36.30;47.30;;;32.56;35.36;100572.34;5029794;28;20408;-53
2021/06/28 07:02:43;;;;;;;2.65;0.30;;;36.40;46.60;;;32.72;35.10;100570.25;5029964;28;20038;-52
2021/06/28 07:05:10;;;;;;;3.92;0.40;;;36.30;47.10;;;33.09;34.43;100575.69;5029713;28;20430;-56
2021/06/28 07:07:37;;;;;;;1.90;0.40;;;36.40;46.70;;;32.87;34.72;100575.47;5030050;28;20053;-56
2021/06/28 07:10:14;;;;;;;0.75;0.30;;;36.40;46.70;;;32.73;34.36;100572.66;5027958;28;20037;-51
2021/06/28 07:12:42;;;;;;;1.77;0.38;;;35.90;47.70;;;31.52;36.67;100570.06;5029466;28;20084;-56
2021/06/28 07:15:10;;;;;;;2.60;0.30;;;33.70;51.20;;;30.54;38.66;100570.84;5029128;28;20049;-51
2021/06/28 07:17:36;;;;;;;1.05;0.30;;;31.90;54.30;;;30.03;39.48;100565.59;5029639;28;20041;-56
2021/06/28 07:20:07;;;;;;;6.05;0.50;;;31.10;56.10;;;29.72;39.93;100569.34;5029683;28;20053;-55
2021/06/28 07:22:33;;;;;;;1.88;0.35;;;30.50;57.00;;;29.64;40.16;100573.38;5029114;28;20116;-41
2021/06/28 07:24:59;;;;;;;1.58;0.40;;;30.10;57.90;;;29.35;41.51;100570.34;5029148;28;20500;-49
2021/06/28 07:27:25;;;;;;;0.47;0.20;;;29.90;59.00;;;29.60;40.85;100569.63;5029130;28;20034;-46
2021/06/28 07:29:52;;;;;;;3.25;0.30;;;29.90;59.30;;;29.80;39.94;100566.09;5029306;28;20033;-45
2021/06/28 07:32:17;;;;;;;7.32;0.68;;;30.00;58.60;;;29.66;40.43;100565.84;5027453;28;20552;-44
2021/06/28 07:34:43;;;;;;;4.70;0.35;;;30.00;58.50;;;29.80;40.57;100565.28;5029165;28;20030;-40
2021/06/28 07:37:09;;;;;;;2.45;0.50;;;30.10;58.80;;;30.01;40.19;100564.25;5028743;28;20063;-39
2021/06/28 07:39:35;;;;;;;9.48;0.50;;;30.20;58.80;;;30.28;39.50;100561.22;5028903;28;20021;-46
2021/06/28 07:42:01;;;;;;;4.57;0.40;;;30.50;58.30;;;29.91;40.38;100556.97;5043904;28;20033;-43
2021/06/28 07:44:27;;;;;;;5.72;0.47;;;30.50;58.30;;;30.21;39.10;100553.47;5028787;28;20030;-47
2021/06/28 07:46:53;;;;;;;10.18;0.55;;;30.50;58.00;;;30.30;39.04;100559.06;5028829;28;20500;-44
2021/06/28 07:49:19;;;;;;;3.88;0.40;;;30.60;58.00;;;30.22;39.84;100554.28;5028688;28;20389;-44
2021/06/28 07:51:46;;;;;;;6.85;0.50;;;30.70;57.80;;;30.73;38.39;100556.78;5028482;28;20034;-47
2021/06/28 07:54:15;;;;;;;2.90;0.40;;;30.80;57.60;;;30.88;38.13;100554.03;5028901;28;20082;-43
2021/06/28 07:56:41;;;;;;;1.77;0.30;;;30.80;57.90;;;31.12;38.18;100551.50;5027349;28;20041;-42
2021/06/28 07:59:07;;;;;;;2.75;0.30;;;31.20;57.90;;;31.49;37.65;100553.69;5028675;28;20124;-52
2021/06/28 08:01:33;;;;;;;4.43;0.57;;;31.60;57.50;;;31.89;36.89;100547.16;5028741;28;20033;-47
2021/06/28 08:03:59;;;;;;;1.55;0.40;;;32.00;56.70;;;31.73;36.18;100545.69;5028669;28;20116;-50
2021/06/28 08:06:25;;;;;;;2.83;0.30;;;32.20;55.50;;;31.29;37.52;100546.53;5028561;28;20076;-49
2021/06/28 08:08:51;;;;;;;4.13;0.43;;;31.80;56.00;;;31.53;37.85;100549.34;5028438;28;20116;-45
2021/06/28 08:11:20;;;;;;;7.15;0.50;;;31.90;56.80;;;31.30;37.50;100546.25;5028444;28;20163;-50
2021/06/28 08:13:50;;;;;;;4.68;0.45;;;31.90;56.10;;;31.27;37.83;100540.63;5028462;28;20450;-46
2021/06/28 08:16:18;;;;;;;2.03;0.30;;;31.80;56.20;;;31.43;37.12;100539.44;5027924;28;20052;-45
2021/06/28 08:18:47;;;;;;;3.30;0.47;;;31.80;55.90;;;31.58;36.99;100542.03;5027895;28;20033;-49
2021/06/28 08:21:13;;;;;;;6.97;0.40;;;32.00;56.20;;;31.76;36.68;100532.44;5043029;28;20089;-52
2021/06/28 08:23:39;;;;;;;5.00;0.40;;;32.00;55.50;;;32.38;35.85;100529.94;5028768;28;20401;-48
2021/06/28 08:26:06;;;;;;;1.77;0.43;;;32.50;55.20;;;31.82;36.11;100530.53;5028652;28;20041;-47
2021/06/28 08:28:33;;;;;;;9.23;0.50;;;32.40;54.90;;;31.81;36.16;100532.41;5043252;28;20728;-47
2021/06/28 08:30:59;;;;;;;1.67;0.30;;;32.30;54.90;;;32.09;35.87;100524.59;5043137;28;20454;-48
2021/06/28 08:33:25;;;;;;;4.25;0.40;;;32.30;54.90;;;32.03;35.79;100525.75;5027948;28;20115;-50
2021/06/28 08:35:51;;;;;;;6.07;0.40;;;32.40;54.70;;;31.84;36.06;100523.75;5027911;28;20121;-49
2021/06/28 08:38:17;;;;;;;3.70;0.47;;;32.30;55.00;;;31.97;35.79;100522.28;5028138;28;20109;-50
2021/06/28 08:40:45;;;;;;;1.98;0.30;;;32.20;54.80;;;32.30;34.71;100520.59;5023166;28;20032;-46
2021/06/28 08:43:11;;;;;;;5.15;0.30;;;32.50;54.30;;;32.44;34.55;100520.72;5033971;28;20432;-54
2021/06/28 08:45:43;;;;;;;3.40;0.40;;;32.60;53.90;;;32.73;33.82;100526.00;5008174;28;20072;-46
2021/06/28 08:48:11;;;;;;;3.08;0.50;;;32.70;53.10;;;33.10;33.57;100517.94;5008104;28;20021;-49
2021/06/28 08:50:40;;;;;;;2.42;0.50;;;33.00;53.60;;;33.73;33.15;100513.97;5008140;28;20320;-50
2021/06/28 08:53:09;;;;;;;2.30;0.30;;;33.60;53.30;;;34.01;32.99;100515.66;5008188;28;20030;-49
2021/06/28 08:55:36;;;;;;;2.35;0.20;;;34.10;52.80;;;33.13;31.45;100521.94;5007858;28;20188;-49
2021/06/28 08:58:06;;;;;;;1.08;0.30;;;33.80;49.90;;;33.10;31.62;100522.53;5007953;28;20458;-49
2021/06/28 09:00:32;;;;;;;1.77;0.30;;;33.40;50.40;;;32.63;32.33;100521.53;5007857;28;20073;-47
2021/06/28 09:03:09;;;;;;;2.50;0.20;;;33.20;50.30;;;33.01;31.08;100517.00;5007906;28;20092;-49
2021/06/28 09:06:10;;;;;;;2.65;0.20;;;33.20;49.70;;;33.18;29.94;100511.06;5006271;28;20052;-45
2021/06/28 09:08:37;;;;;;;2.70;0.20;;;33.40;49.10;;;33.52;29.64;100511.63;5015449;28;20062;-50
2021/06/28 09:11:15;;;;;;;1.58;0.55;;;33.60;49.40;;;33.12;30.43;100509.53;5005349;28;20522;-49
2021/06/28 09:13:45;;;;;;;1.00;0.20;;;33.40;49.00;;;33.89;28.83;100510.72;5022644;28;20527;-45
2021/06/28 09:16:24;;;;;;;2.25;0.22;;;34.00;47.80;;;34.04;28.91;100512.31;5007394;28;20050;-48
2021/06/28 09:18:52;;;;;;;3.90;0.20;;;34.00;48.10;;;33.75;28.93;100506.38;5007876;28;20125;-47
2021/06/28 09:21:31;;;;;;;0.80;0.22;;;34.00;47.50;;;33.49;28.88;100514.13;5007719;28;20053;-46
2021/06/28 09:24:00;;;;;;;2.40;0.30;;;33.80;47.00;;;33.47;29.55;100517.13;5012146;28;20052;-49
2021/06/28 09:26:44;;;;;;;1.00;0.20;;;33.70;47.90;;;33.70;29.33;100514.56;5042725;28;20485;-48
2021/06/28 09:29:10;;;;;;;2.80;0.40;;;33.70;47.70;;;33.94;28.70;100518.75;5027450;28;20473;-46
2021/06/28 09:31:43;;;;;;;0.82;0.20;;;34.10;47.10;;;33.76;28.27;100511.47;5027186;28;20150;-50
2021/06/28 09:34:15;;;;;;;1.70;0.20;;;34.00;46.70;;;34.22;28.27;100514.13;5042465;28;20041;-50
2021/06/28 09:36:54;;;;;;;2.55;0.20;;;34.20;47.30;;;34.28;28.10;100510.22;5027638;28;20116;-48
2021/06/28 09:39:37;;;;;;;1.13;0.20;;;34.40;47.10;;;34.81;27.78;100509.69;5018925;28;20041;-50
2021/06/28 09:42:15;;;;;;;3.55;0.30;;;34.70;47.00;;;34.79;27.25;100500.25;5037829;28;20184;-48
2021/06/28 09:44:57;;;;;;;4.47;0.20;;;34.90;46.10;;;34.31;28.58;100502.66;5046994;28;20131;-51
2021/06/28 09:47:29;;;;;;;7.80;0.20;;;34.70;46.70;;;34.43;28.60;100502.94;5047070;28;20068;-48
2021/06/28 09:50:19;;;;;;;2.30;0.20;;;34.70;47.50;;;33.91;28.53;100494.22;5062316;28;20021;-51
2021/06/28 09:52:47;;;;;;;1.42;0.20;;;34.40;46.60;;;33.89;29.52;100502.63;5047349;28;20033;-51
2021/06/28 09:55:19;;;;;;;3.03;0.30;;;34.10;47.80;;;33.86;29.09;100503.22;5062097;28;20039;-50
2021/06/28 09:58:17;;;;;;;3.13;0.25;;;34.10;47.10;;;33.26;29.22;100500.41;5047099;28;20052;-49
2021/06/28 10:00:47;;;;;;;1.15;0.20;;;33.70;47.20;;;33.10;29.88;100512.53;5062182;28;20041;-51
2021/06/28 10:03:41;;;;;;;2.45;0.32;;;33.50;48.00;;;33.84;29.91;100510.00;5062082;28;20037;-51
2021/06/28 10:09:03;;;;;;;3.38;0.20;;;34.20;47.90;;;34.24;28.51;100503.00;5024569;28;20132;-48
2021/06/28 10:11:30;;;;;;;2.45;0.20;;;34.40;46.90;;;34.47;28.77;100502.03;5019738;28;20037;-49
2021/06/28 10:13:59;;;;;;;1.55;0.20;;;34.50;47.40;;;34.80;27.77;100497.28;5041748;28;20483;-47
2021/06/28 10:16:28;;;;;;;0.75;0.20;;;34.80;46.60;;;34.96;27.54;100494.22;5021573;28;20054;-54
2021/06/28 10:18:56;;;;;;;0.85;0.30;;;35.00;46.40;;;35.00;27.18;100489.78;5026622;28;20034;-55
2021/06/28 10:21:23;;;;;;;0.52;0.20;;;35.20;45.80;;;34.84;27.66;100489.34;5027249;28;20033;-52